Time;durP1;ratioP1;P1;durP2;ratioP2;P2;SDS_P1;SDS_P2;PMS_P1;PMS_P2;Temp;Humidity;BMP_temperature;BMP_pressure;BME280_temperature;BME280_humidity;BME280_pressure;Samples;Min_cycle;Max_cycle;Signal;HPM_P1;HPM_P2
2022/04/27 00:00:54;;;;;;;7.87;5.23;;;10.80;91.00;;;;;;5043110;28;20216;-44
2022/04/27 00:03:22;;;;;;;8.33;5.80;;;10.80;91.00;;;;;;5043326;28;20668;-47
2022/04/27 00:05:49;;;;;;;6.97;5.67;;;10.80;91.10;;;;;;5031089;28;20240;-45
2022/04/27 00:08:17;;;;;;;8.40;5.80;;;10.80;91.00;;;;;;5044193;28;20295;-43
2022/04/27 00:10:44;;;;;;;8.07;4.97;;;10.80;91.00;;;;;;5022296;28;20911;-45
2022/04/27 00:13:16;;;;;;;10.23;5.67;;;10.80;91.30;;;;;;5027931;28;20196;-46
2022/04/27 00:15:43;;;;;;;8.83;4.87;;;10.70;91.10;;;;;;5045322;28;20215;-38
2022/04/27 00:18:10;;;;;;;6.70;5.73;;;10.70;91.00;;;;;;5036387;28;20302;-38
2022/04/27 00:20:39;;;;;;;8.20;5.63;;;10.60;91.00;;;;;;5027717;28;20208;-38
2022/04/27 00:23:08;;;;;;;7.50;5.40;;;10.60;91.00;;;;;;5028572;28;20694;-38
2022/04/27 00:25:36;;;;;;;7.43;5.37;;;10.60;91.00;;;;;;5036757;28;20671;-37
2022/04/27 00:28:05;;;;;;;7.33;4.83;;;10.60;91.00;;;;;;5030552;28;20287;-37
2022/04/27 00:30:32;;;;;;;9.07;5.63;;;10.50;90.90;;;;;;5037862;28;20231;-38
2022/04/27 00:33:01;;;;;;;7.97;5.07;;;10.50;91.00;;;;;;5046049;28;20204;-38
2022/04/27 00:35:29;;;;;;;6.30;5.30;;;10.40;90.90;;;;;;5046626;28;20714;-38
2022/04/27 00:37:56;;;;;;;9.27;5.60;;;10.40;91.00;;;;;;5038822;28;20285;-38
2022/04/27 00:40:23;;;;;;;8.27;5.67;;;10.40;91.00;;;;;;5028373;28;20667;-38
2022/04/27 00:42:53;;;;;;;10.37;6.10;;;10.30;91.10;;;;;;5027648;28;20205;-38
2022/04/27 00:45:22;;;;;;;5.37;4.83;;;10.30;91.00;;;;;;5042909;28;20223;-38
2022/04/27 00:47:49;;;;;;;8.60;5.43;;;10.30;91.00;;;;;;5046762;28;20192;-38
2022/04/27 00:50:20;;;;;;;9.53;5.97;;;10.30;91.10;;;;;;5043006;28;20303;-38
2022/04/27 00:52:48;;;;;;;7.47;5.93;;;10.30;91.00;;;;;;5044598;28;20242;-38
2022/04/27 00:55:15;;;;;;;8.17;5.80;;;10.30;91.20;;;;;;5029364;28;20633;-38
2022/04/27 00:57:46;;;;;;;9.07;6.10;;;10.30;91.20;;;;;;5041962;28;20304;-38
2022/04/27 01:00:15;;;;;;;9.53;5.77;;;10.20;91.10;;;;;;5040278;28;20237;-37
2022/04/27 01:02:43;;;;;;;6.23;5.17;;;10.20;91.10;;;;;;5044404;28;20432;-38
2022/04/27 01:05:12;;;;;;;6.63;5.20;;;10.20;91.10;;;;;;5042303;28;20281;-38
2022/04/27 01:07:40;;;;;;;8.03;5.77;;;10.20;91.10;;;;;;5050091;28;20210;-37
2022/04/27 01:10:09;;;;;;;10.13;6.37;;;10.20;91.20;;;;;;5045954;28;20311;-38
2022/04/27 01:12:36;;;;;;;6.87;5.83;;;10.20;91.20;;;;;;5046702;28;20193;-37
2022/04/27 01:15:04;;;;;;;7.43;6.13;;;10.10;91.20;;;;;;5042502;28;20232;-47
2022/04/27 01:17:32;;;;;;;6.87;5.53;;;10.10;91.20;;;;;;5050589;28;20227;-47
2022/04/27 01:20:02;;;;;;;9.37;6.20;;;10.10;91.20;;;;;;5051243;28;20216;-46
2022/04/27 01:22:29;;;;;;;8.67;5.70;;;10.10;91.20;;;;;;5043859;28;20208;-47
2022/04/27 01:24:57;;;;;;;7.23;5.83;;;10.10;91.20;;;;;;5045015;28;20222;-45
2022/04/27 01:27:26;;;;;;;8.27;5.60;;;10.10;91.30;;;;;;5043457;28;20207;-45
2022/04/27 01:29:53;;;;;;;7.83;5.77;;;10.10;91.20;;;;;;5042948;28;20203;-45
2022/04/27 01:32:21;;;;;;;7.33;6.00;;;10.00;91.20;;;;;;5030788;28;20235;-46
2022/04/27 01:34:48;;;;;;;8.47;5.93;;;10.00;91.20;;;;;;5031461;28;20209;-44
2022/04/27 01:40:01;;;;;;;9.60;6.20;;;10.00;91.30;;;;;;5031191;28;20737;-45
2022/04/27 01:42:30;;;;;;;8.30;5.80;;;9.90;91.80;;;;;;5046840;28;20202;-48
2022/04/27 01:44:57;;;;;;;9.00;6.30;;;9.90;91.70;;;;;;5031550;28;20268;-47
2022/04/27 01:47:25;;;;;;;9.17;5.93;;;9.90;91.80;;;;;;5031490;28;20472;-46
2022/04/27 01:49:53;;;;;;;9.37;5.97;;;9.90;91.80;;;;;;5040339;28;20208;-37
2022/04/27 01:55:06;;;;;;;9.87;6.77;;;9.90;91.80;;;;;;5032741;28;20336;-37
2022/04/27 01:57:33;;;;;;;8.03;6.03;;;9.80;91.80;;;;;;5048066;28;20621;-37
2022/04/27 02:00:01;;;;;;;8.73;6.47;;;9.80;91.80;;;;;;5029396;28;20248;-45
2022/04/27 02:02:28;;;;;;;7.27;5.90;;;9.80;91.80;;;;;;5029725;28;20533;-37
2022/04/27 02:04:55;;;;;;;8.87;6.53;;;9.80;91.80;;;;;;5029611;28;20762;-37
2022/04/27 02:07:27;;;;;;;9.70;6.87;;;9.80;91.80;;;;;;5032457;28;20196;-37
2022/04/27 02:09:54;;;;;;;8.20;6.20;;;9.80;91.90;;;;;;5046003;28;20671;-37
2022/04/27 02:12:22;;;;;;;9.60;7.30;;;9.80;91.90;;;;;;5050419;28;20196;-36
2022/04/27 02:14:51;;;;;;;11.90;6.90;;;9.80;92.30;;;;;;5046585;28;20211;-37
2022/04/27 02:17:19;;;;;;;7.67;6.50;;;9.80;92.10;;;;;;5037307;28;20204;-39
2022/04/27 02:19:46;;;;;;;8.03;6.70;;;9.80;92.00;;;;;;5037260;28;20290;-38
2022/04/27 02:22:13;;;;;;;8.60;7.00;;;9.80;92.00;;;;;;5030212;28;20659;-37
2022/04/27 02:24:42;;;;;;;10.47;6.93;;;9.70;92.10;;;;;;5029989;28;20582;-37
2022/04/27 02:27:10;;;;;;;10.47;7.53;;;9.70;92.00;;;;;;5029521;28;20209;-37
2022/04/27 02:29:37;;;;;;;13.50;7.23;;;9.70;91.90;;;;;;5029166;28;20634;-37
2022/04/27 02:32:07;;;;;;;7.97;6.77;;;9.70;92.00;;;;;;5035807;28;20215;-37
2022/04/27 02:34:36;;;;;;;9.53;7.00;;;9.70;92.00;;;;;;5038309;28;20681;-37
2022/04/27 02:37:06;;;;;;;9.87;6.83;;;9.70;91.90;;;;;;5043453;28;20217;-38
2022/04/27 02:39:34;;;;;;;10.13;7.60;;;9.70;92.10;;;;;;5067196;28;20218;-38
2022/04/27 02:42:01;;;;;;;9.53;7.77;;;9.60;92.10;;;;;;5060919;28;20208;-37
2022/04/27 02:44:31;;;;;;;9.80;7.00;;;9.60;92.00;;;;;;5042470;28;20289;-37
2022/04/27 02:46:58;;;;;;;9.77;6.77;;;9.60;92.00;;;;;;5032193;28;20220;-37
2022/04/27 02:52:13;;;;;;;10.97;8.13;;;9.50;92.00;;;;;;5030620;28;20212;-37
2022/04/27 02:54:41;;;;;;;10.83;7.30;;;9.50;92.10;;;;;;5032365;28;20228;-37
2022/04/27 02:57:08;;;;;;;9.57;7.63;;;9.50;92.10;;;;;;5053553;28;20211;-37
2022/04/27 02:59:35;;;;;;;10.17;7.60;;;9.50;92.10;;;;;;5069347;28;20241;-37
2022/04/27 03:02:04;;;;;;;10.23;7.77;;;9.50;92.10;;;;;;5068130;28;20243;-37
2022/04/27 03:04:34;;;;;;;10.53;8.07;;;9.40;92.00;;;;;;5048635;28;20298;-37
2022/04/27 03:07:03;;;;;;;11.80;7.67;;;9.40;92.10;;;;;;5048529;28;20196;-37
2022/04/27 03:09:30;;;;;;;10.93;7.80;;;9.40;92.10;;;;;;5039391;28;20237;-37
2022/04/27 03:11:58;;;;;;;10.37;8.67;;;9.40;92.20;;;;;;5032990;28;20680;-37
2022/04/27 03:14:31;;;;;;;8.83;7.77;;;9.30;92.30;;;;;;5031457;28;20214;-37
2022/04/27 03:17:01;;;;;;;12.20;8.30;;;9.30;92.20;;;;;;5049358;28;20283;-46
2022/04/27 03:19:31;;;;;;;11.03;8.43;;;9.30;92.20;;;;;;5048356;28;20227;-45
2022/04/27 03:22:01;;;;;;;11.00;8.17;;;9.30;92.20;;;;;;5045031;28;20210;-47
2022/04/27 03:24:28;;;;;;;10.27;8.07;;;9.30;92.20;;;;;;5034860;28;20215;-45
2022/04/27 03:26:58;;;;;;;12.33;9.00;;;9.30;92.20;;;;;;5048725;28;20262;-45
2022/04/27 03:29:27;;;;;;;10.70;8.60;;;9.20;92.20;;;;;;5034874;28;20267;-44
2022/04/27 03:31:54;;;;;;;16.07;8.50;;;9.20;92.20;;;;;;5041891;28;20196;-44
2022/04/27 03:34:21;;;;;;;11.67;9.03;;;9.20;92.50;;;;;;5031917;28;20614;-45
2022/04/27 03:36:49;;;;;;;11.07;8.77;;;9.10;92.20;;;;;;5027724;28;20254;-46
2022/04/27 03:39:16;;;;;;;14.33;8.77;;;9.10;92.20;;;;;;5057230;28;20200;-44
2022/04/27 03:42:03;;;;;;;11.13;8.83;;;9.00;92.20;;;;;;5038721;28;20201;-45
2022/04/27 03:44:30;;;;;;;13.00;8.73;;;9.00;92.20;;;;;;5042349;28;20666;-44
2022/04/27 03:46:58;;;;;;;14.30;9.13;;;9.00;92.30;;;;;;5027200;28;20205;-47
2022/04/27 03:49:25;;;;;;;11.00;8.13;;;8.90;92.30;;;;;;5027876;28;20204;-46
2022/04/27 03:51:53;;;;;;;13.07;8.90;;;8.90;92.20;;;;;;5028716;28;20783;-45
2022/04/27 03:54:22;;;;;;;13.43;9.67;;;8.90;92.30;;;;;;5045023;28;20208;-46
2022/04/27 03:56:52;;;;;;;12.73;8.93;;;8.90;92.30;;;;;;5030765;28;20268;-46
2022/04/27 03:59:19;;;;;;;11.43;9.17;;;8.90;92.40;;;;;;5029989;28;20201;-45
2022/04/27 04:01:47;;;;;;;9.83;8.83;;;8.80;92.30;;;;;;5039949;28;20241;-48
2022/04/27 04:04:14;;;;;;;11.07;9.27;;;8.80;92.20;;;;;;5028773;28;20189;-46
2022/04/27 04:06:42;;;;;;;12.03;9.60;;;8.80;92.30;;;;;;5035494;28;20230;-45
2022/04/27 04:09:09;;;;;;;12.07;9.67;;;8.80;92.40;;;;;;5028226;28;20215;-47
2022/04/27 04:11:37;;;;;;;11.73;9.97;;;8.80;92.40;;;;;;5027194;28;20216;-48
2022/04/27 04:14:04;;;;;;;12.20;10.40;;;8.80;92.40;;;;;;5028047;28;20228;-46
2022/04/27 04:16:34;;;;;;;11.57;9.53;;;8.70;92.40;;;;;;5031745;28;20708;-38
2022/04/27 04:19:01;;;;;;;16.53;10.50;;;8.70;92.50;;;;;;5043003;28;20212;-39
2022/04/27 04:21:28;;;;;;;11.83;9.73;;;8.70;92.50;;;;;;5028431;28;20212;-39
2022/04/27 04:23:56;;;;;;;11.60;9.17;;;8.70;92.40;;;;;;5027743;28;20247;-39
2022/04/27 04:29:09;;;;;;;13.37;9.83;;;8.70;92.40;;;;;;5038324;28;20208;-38
2022/04/27 04:31:38;;;;;;;13.03;10.60;;;8.70;92.50;;;;;;5047396;28;20200;-39
2022/04/27 04:34:08;;;;;;;14.47;11.47;;;8.70;92.40;;;;;;5028149;28;20200;-39
2022/04/27 04:36:35;;;;;;;11.60;9.77;;;8.70;92.50;;;;;;5027789;28;20682;-39
2022/04/27 04:39:02;;;;;;;12.67;10.20;;;8.60;92.50;;;;;;5052748;28;20216;-39
2022/04/27 04:41:30;;;;;;;14.20;10.67;;;8.60;92.50;;;;;;5048530;28;20231;-49
2022/04/27 04:43:59;;;;;;;15.50;11.13;;;8.60;92.50;;;;;;5047489;28;20227;-47
2022/04/27 04:46:27;;;;;;;12.27;9.80;;;8.60;92.60;;;;;;5045299;28;20330;-47
2022/04/27 04:48:54;;;;;;;15.27;10.40;;;8.60;92.50;;;;;;5044719;28;20211;-48
2022/04/27 04:51:24;;;;;;;14.50;10.30;;;8.60;92.60;;;;;;5027924;28;20201;-48
2022/04/27 04:54:06;;;;;;;13.53;10.43;;;8.60;92.50;;;;;;5033800;28;20212;-37
2022/04/27 04:56:33;;;;;;;13.73;10.47;;;8.60;92.60;;;;;;5030308;28;20237;-39
2022/04/27 04:59:03;;;;;;;12.60;10.60;;;8.60;92.40;;;;;;5031128;28;20244;-38
2022/04/27 05:01:30;;;;;;;13.87;11.30;;;8.60;92.60;;;;;;5033273;28;20201;-38
2022/04/27 05:04:00;;;;;;;14.60;11.23;;;8.60;92.60;;;;;;5032446;28;20655;-38
2022/04/27 05:06:32;;;;;;;15.07;11.37;;;8.70;92.70;;;;;;5032426;28;20578;-39
2022/04/27 05:08:59;;;;;;;15.67;11.43;;;8.60;92.70;;;;;;5028641;28;20291;-39
2022/04/27 05:11:29;;;;;;;13.40;11.63;;;8.60;92.80;;;;;;5029820;28;20615;-38
2022/04/27 05:13:56;;;;;;;17.00;11.63;;;8.60;92.90;;;;;;5032690;28;20748;-38
2022/04/27 05:16:25;;;;;;;13.60;11.30;;;8.70;92.90;;;;;;5032233;28;20567;-38
2022/04/27 05:18:52;;;;;;;15.27;10.87;;;8.70;92.90;;;;;;5032455;28;20215;-39
2022/04/27 05:21:20;;;;;;;14.00;10.83;;;8.70;92.90;;;;;;5037065;28;20242;-39
2022/04/27 05:23:47;;;;;;;14.57;11.57;;;8.70;92.90;;;;;;5034586;28;20212;-39
2022/04/27 05:26:15;;;;;;;16.17;11.87;;;8.80;93.00;;;;;;5043293;28;20232;-38
2022/04/27 05:34:14;;;;;;;15.60;12.90;;;8.80;93.10;;;;;;5035999;28;20544;-45
2022/04/27 05:36:44;;;;;;;18.00;12.57;;;8.80;93.00;;;;;;5034704;28;20582;-46
2022/04/27 05:39:11;;;;;;;15.53;11.03;;;8.80;93.10;;;;;;5057849;28;20690;-44
2022/04/27 05:41:38;;;;;;;15.13;11.57;;;8.90;93.10;;;;;;5042014;28;20680;-44
2022/04/27 05:44:12;;;;;;;14.10;12.03;;;8.90;93.20;;;;;;5039905;28;20200;-45
2022/04/27 05:46:40;;;;;;;13.30;11.83;;;8.90;93.20;;;;;;5040174;28;20213;-44
2022/04/27 05:49:07;;;;;;;19.20;12.40;;;8.90;93.20;;;;;;5048499;28;20299;-45
2022/04/27 05:51:36;;;;;;;14.87;11.93;;;9.00;93.20;;;;;;5048258;28;20208;-43
2022/04/27 05:54:03;;;;;;;13.03;11.47;;;9.00;93.20;;;;;;5046323;28;20212;-44
2022/04/27 05:56:30;;;;;;;17.37;12.33;;;9.00;93.20;;;;;;5029057;28;20243;-48
2022/04/27 05:59:01;;;;;;;14.80;11.70;;;9.10;93.30;;;;;;5036726;28;20399;-44
2022/04/27 06:01:29;;;;;;;18.57;11.93;;;9.10;93.30;;;;;;5041727;28;20226;-45
2022/04/27 06:03:56;;;;;;;13.47;11.17;;;9.20;93.30;;;;;;5029536;28;20213;-44
2022/04/27 06:06:24;;;;;;;16.70;11.97;;;9.20;93.30;;;;;;5048209;28;20320;-45
2022/04/27 06:08:54;;;;;;;14.23;12.57;;;9.20;93.50;;;;;;5032828;28;20266;-44
2022/04/27 06:11:22;;;;;;;16.97;12.03;;;9.30;93.50;;;;;;5032249;28;20204;-46
2022/04/27 06:13:49;;;;;;;15.10;12.10;;;9.30;93.50;;;;;;5027525;28;20292;-44
2022/04/27 06:16:17;;;;;;;16.83;12.13;;;9.30;93.50;;;;;;5029259;28;20209;-45
2022/04/27 06:18:47;;;;;;;15.67;11.40;;;9.30;93.80;;;;;;5029489;28;20227;-46
2022/04/27 06:21:14;;;;;;;15.53;11.30;;;9.40;93.60;;;;;;5033742;28;20209;-47
2022/04/27 06:23:44;;;;;;;14.43;11.80;;;9.40;93.70;;;;;;5039224;28;20219;-45
2022/04/27 06:26:14;;;;;;;17.40;12.70;;;9.40;93.80;;;;;;5049186;28;20307;-46
2022/04/27 06:28:41;;;;;;;17.77;12.87;;;9.50;93.80;;;;;;5041118;28;20671;-47
2022/04/27 06:31:09;;;;;;;14.83;11.77;;;9.50;93.70;;;;;;5028944;28;20193;-45
2022/04/27 06:33:38;;;;;;;19.30;12.27;;;9.50;93.80;;;;;;5028815;28;20205;-45
2022/04/27 06:36:07;;;;;;;18.13;12.43;;;9.50;93.80;;;;;;5040774;28;20331;-46
2022/04/27 06:38:35;;;;;;;15.90;12.57;;;9.60;93.80;;;;;;5058249;28;20372;-45
2022/04/27 06:41:06;;;;;;;14.73;12.43;;;9.60;93.70;;;;;;5040028;28;20216;-45
2022/04/27 06:43:36;;;;;;;16.30;12.57;;;9.60;93.80;;;;;;5044913;28;20234;-43
2022/04/27 06:46:03;;;;;;;17.63;12.77;;;9.70;93.90;;;;;;5038989;28;20220;-44
2022/04/27 06:48:33;;;;;;;17.07;12.17;;;9.70;93.80;;;;;;5029162;28;20211;-48
2022/04/27 06:51:00;;;;;;;15.13;12.17;;;9.80;94.00;;;;;;5036659;28;20206;-45
2022/04/27 06:53:27;;;;;;;15.53;12.93;;;9.80;94.20;;;;;;5033642;28;20216;-47
2022/04/27 06:56:01;;;;;;;15.40;12.03;;;9.80;94.00;;;;;;5027377;28;20248;-45
2022/04/27 06:58:28;;;;;;;17.93;12.63;;;9.90;94.00;;;;;;5037181;28;20239;-48
2022/04/27 07:00:58;;;;;;;16.50;12.63;;;9.90;94.30;;;;;;5032280;28;20208;-46
2022/04/27 07:03:32;;;;;;;13.30;11.87;;;9.90;94.10;;;;;;5045158;28;20219;-44
2022/04/27 07:06:00;;;;;;;16.73;12.40;;;10.00;93.80;;;;;;5039791;28;20294;-44
2022/04/27 07:08:32;;;;;;;16.37;12.33;;;10.00;93.70;;;;;;5028698;28;20200;-47
2022/04/27 07:10:59;;;;;;;16.47;12.83;;;10.10;93.90;;;;;;5029812;28;20216;-45
2022/04/27 07:13:29;;;;;;;17.93;12.67;;;10.10;93.80;;;;;;5037465;28;20550;-44
2022/04/27 07:16:00;;;;;;;15.53;11.87;;;10.10;94.00;;;;;;5031523;28;20266;-48
2022/04/27 07:18:32;;;;;;;13.60;11.73;;;10.10;93.90;;;;;;5029220;28;20323;-47
2022/04/27 07:21:00;;;;;;;14.43;10.90;;;10.10;93.90;;;;;;5031728;28;20617;-47
2022/04/27 07:23:28;;;;;;;12.20;10.23;;;10.20;93.70;;;;;;5031484;28;20263;-46
2022/04/27 07:25:55;;;;;;;15.80;11.30;;;10.30;94.10;;;;;;5030599;28;20663;-47
2022/04/27 07:28:23;;;;;;;16.40;11.27;;;10.40;94.10;;;;;;5028832;28;20205;-48
2022/04/27 07:30:50;;;;;;;18.73;11.23;;;10.40;94.00;;;;;;5029214;28;20605;-45
2022/04/27 07:33:21;;;;;;;13.67;10.53;;;10.40;94.00;;;;;;5036197;28;20294;-46
2022/04/27 07:35:54;;;;;;;12.80;10.03;;;10.40;94.00;;;;;;5049088;28;20551;-47
2022/04/27 07:38:21;;;;;;;13.03;9.80;;;10.50;93.90;;;;;;5039709;28;20589;-45
2022/04/27 07:40:48;;;;;;;13.07;9.13;;;10.60;94.00;;;;;;5047826;28;20709;-46
2022/04/27 07:43:18;;;;;;;10.73;9.23;;;10.60;94.00;;;;;;5031917;28;20216;-48
2022/04/27 07:45:45;;;;;;;10.83;9.13;;;10.70;94.00;;;;;;5028651;28;20243;-48
2022/04/27 07:48:12;;;;;;;11.40;9.20;;;10.80;94.10;;;;;;5027810;28;20525;-47
2022/04/27 07:50:40;;;;;;;12.53;9.10;;;10.80;94.10;;;;;;5037023;28;20199;-47
2022/04/27 07:53:07;;;;;;;12.30;9.43;;;10.90;94.20;;;;;;5028848;28;20220;-45
2022/04/27 07:55:35;;;;;;;11.87;9.47;;;11.00;94.30;;;;;;5030011;28;20264;-45
2022/04/27 07:58:03;;;;;;;10.43;9.33;;;11.00;94.30;;;;;;5030889;28;20204;-45
2022/04/27 08:00:30;;;;;;;9.53;7.43;;;11.10;94.20;;;;;;5031408;28;20242;-47
2022/04/27 08:02:58;;;;;;;9.83;7.10;;;11.10;94.20;;;;;;5029090;28;20256;-48
2022/04/27 08:05:26;;;;;;;8.90;6.67;;;11.20;94.30;;;;;;5044808;28;20212;-47
2022/04/27 08:07:53;;;;;;;10.33;7.07;;;11.30;94.30;;;;;;5039402;28;20215;-46
2022/04/27 08:10:21;;;;;;;9.23;6.27;;;11.30;94.20;;;;;;5043002;28;20302;-46
2022/04/27 08:12:51;;;;;;;7.80;5.73;;;11.40;94.20;;;;;;5027919;28;20196;-46
2022/04/27 08:15:20;;;;;;;8.33;5.70;;;11.40;94.20;;;;;;5036641;28;20598;-45
2022/04/27 08:18:00;;;;;;;8.00;5.07;;;11.50;94.30;;;;;;5036466;28;21014;-47
2022/04/27 08:23:29;;;;;;;7.53;5.10;;;11.60;94.20;;;;;;5049929;28;20235;-55
2022/04/27 08:26:06;;;;;;;8.43;5.87;;;11.70;94.20;;;;;;5034614;28;20225;-56
2022/04/27 08:28:34;;;;;;;10.20;6.50;;;11.80;94.30;;;;;;5028012;28;20213;-50
2022/04/27 08:31:01;;;;;;;7.97;6.47;;;11.80;94.30;;;;;;5030487;28;20211;-47
2022/04/27 08:33:29;;;;;;;8.97;6.20;;;11.90;94.30;;;;;;5036909;28;20292;-46
2022/04/27 08:36:00;;;;;;;9.87;6.60;;;12.00;94.30;;;;;;5027821;28;20302;-38
2022/04/27 08:38:47;;;;;;;9.37;6.23;;;12.10;94.40;;;;;;5048487;28;20587;-38
2022/04/27 08:41:17;;;;;;;7.40;5.03;;;12.10;94.30;;;;;;5044007;28;20240;-43
2022/04/27 08:43:44;;;;;;;6.93;4.70;;;12.20;94.50;;;;;;5027368;28;20215;-38
2022/04/27 08:46:15;;;;;;;7.13;4.63;;;12.30;94.50;;;;;;5037262;28;20233;-38
2022/04/27 08:48:47;;;;;;;7.00;4.43;;;12.30;94.50;;;;;;5044314;28;20210;-39
2022/04/27 08:51:16;;;;;;;6.83;5.50;;;12.40;94.60;;;;;;5035063;28;20205;-38
2022/04/27 08:53:44;;;;;;;7.00;4.70;;;12.50;94.40;;;;;;5027375;28;20245;-39
2022/04/27 08:56:13;;;;;;;6.93;4.80;;;12.50;94.50;;;;;;5034771;28;20714;-38
2022/04/27 08:58:41;;;;;;;10.00;5.53;;;12.60;94.90;;;;;;5047142;28;20275;-38
2022/04/27 09:01:10;;;;;;;7.97;5.17;;;12.60;94.30;;;;;;5035184;28;20332;-39
2022/04/27 09:03:39;;;;;;;7.57;4.60;;;12.60;94.20;;;;;;5026369;28;20213;-39
2022/04/27 09:06:12;;;;;;;6.53;4.67;;;12.60;94.20;;;;;;5041067;28;20232;-39
2022/04/27 09:08:46;;;;;;;7.17;5.03;;;12.70;94.20;;;;;;5027673;28;20701;-39
2022/04/27 09:11:25;;;;;;;7.53;4.40;;;12.70;94.00;;;;;;5035849;28;20225;-38
2022/04/27 09:14:08;;;;;;;6.73;4.63;;;12.70;94.00;;;;;;5039344;28;20206;-39
2022/04/27 09:22:26;;;;;;;7.47;4.50;;;12.80;94.10;;;;;;5047109;28;20231;-39
2022/04/27 09:24:58;;;;;;;6.40;4.17;;;12.90;94.20;;;;;;5041044;28;20209;-39
2022/04/27 09:27:26;;;;;;;11.07;5.60;;;13.00;94.30;;;;;;5050721;28;20740;-39
2022/04/27 09:29:56;;;;;;;5.70;4.53;;;13.10;94.10;;;;;;5048150;28;20232;-38
2022/04/27 09:32:24;;;;;;;6.27;4.33;;;13.10;94.10;;;;;;5044235;28;20196;-38
2022/04/27 09:34:51;;;;;;;7.13;4.33;;;13.10;94.20;;;;;;5051072;28;20262;-39
2022/04/27 09:37:30;;;;;;;4.40;4.00;;;13.20;94.20;;;;;;5051029;28;20200;-39
2022/04/27 09:40:07;;;;;;;5.83;4.50;;;13.20;94.20;;;;;;5032464;28;20212;-38
2022/04/27 09:42:45;;;;;;;8.43;4.10;;;13.30;94.30;;;;;;5040182;28;20217;-38
2022/04/27 09:45:19;;;;;;;5.63;4.40;;;13.30;94.30;;;;;;5035207;28;20403;-48
2022/04/27 09:48:04;;;;;;;5.57;4.47;;;13.60;94.40;;;;;;5027963;28;20224;-48
2022/04/27 09:50:51;;;;;;;7.07;4.20;;;13.70;94.40;;;;;;5039512;28;20204;-48
2022/04/27 09:53:19;;;;;;;6.50;4.03;;;13.80;94.30;;;;;;5049212;28;20546;-49
2022/04/27 09:55:52;;;;;;;7.27;4.27;;;13.80;94.40;;;;;;5045616;28;20236;-46
2022/04/27 09:58:20;;;;;;;7.63;4.93;;;13.80;94.40;;;;;;5048462;28;20219;-47
2022/04/27 10:00:50;;;;;;;5.43;4.13;;;13.80;94.20;;;;;;5031339;28;20205;-47
2022/04/27 10:03:20;;;;;;;5.63;4.23;;;13.80;94.10;;;;;;5033644;28;20196;-50
2022/04/27 10:05:49;;;;;;;6.87;4.20;;;13.80;94.00;;;;;;5030664;28;20212;-48
2022/04/27 10:08:22;;;;;;;5.83;4.47;;;13.90;94.30;;;;;;5030251;28;20225;-48
2022/04/27 10:10:50;;;;;;;6.80;4.10;;;13.90;94.40;;;;;;5033344;28;20240;-46
2022/04/27 10:13:25;;;;;;;5.87;3.70;;;14.00;94.50;;;;;;5034189;28;20238;-47
2022/04/27 10:15:53;;;;;;;6.50;5.00;;;14.00;94.50;;;;;;5029188;28;20298;-47
2022/04/27 10:18:21;;;;;;;6.13;4.80;;;14.00;94.00;;;;;;5033581;28;20820;-38
2022/04/27 10:20:54;;;;;;;6.70;4.40;;;14.10;94.00;;;;;;5035934;28;20216;-38
2022/04/27 10:23:28;;;;;;;8.30;5.17;;;14.10;94.10;;;;;;5043480;28;20212;-39
2022/04/27 10:26:17;;;;;;;6.90;4.97;;;14.10;94.10;;;;;;5038064;28;20261;-37
2022/04/27 10:28:46;;;;;;;6.40;4.33;;;14.10;94.20;;;;;;5041606;28;20285;-38
2022/04/27 10:31:54;;;;;;;8.30;5.27;;;14.10;94.30;;;;;;5034398;28;20213;-38
2022/04/27 10:34:25;;;;;;;8.07;5.43;;;14.10;93.70;;;;;;5039298;28;20207;-38
2022/04/27 10:36:54;;;;;;;8.60;5.50;;;14.20;94.10;;;;;;5035098;28;20273;-38
2022/04/27 10:39:26;;;;;;;6.27;5.43;;;14.20;94.00;;;;;;5042675;28;20300;-38
2022/04/27 10:42:16;;;;;;;7.13;5.47;;;14.20;93.70;;;;;;5042600;28;20204;-38
2022/04/27 10:44:50;;;;;;;7.53;5.70;;;14.20;93.70;;;;;;5034653;28;20204;-38
2022/04/27 10:47:22;;;;;;;5.77;4.53;;;14.30;94.00;;;;;;5035837;28;20737;-38
2022/04/27 10:50:13;;;;;;;4.57;4.13;;;14.30;94.10;;;;;;5042143;28;20201;-38
2022/04/27 10:52:50;;;;;;;9.77;5.80;;;14.40;94.30;;;;;;5046137;28;20202;-38
2022/04/27 10:55:33;;;;;;;6.15;5.22;;;14.50;94.00;;;;;;5035172;28;20334;-38
2022/04/27 10:58:13;;;;;;;7.40;5.17;;;14.50;94.20;;;;;;5029132;28;20234;-38
2022/04/27 11:00:59;;;;;;;6.37;5.47;;;14.60;94.30;;;;;;5033262;28;20287;-38
2022/04/27 11:03:35;;;;;;;8.37;5.33;;;14.60;93.70;;;;;;5034903;28;21648;-38
2022/04/27 11:06:05;;;;;;;5.38;4.82;;;14.60;94.00;;;;;;5036682;28;20627;-38
2022/04/27 11:08:47;;;;;;;5.07;4.57;;;14.70;94.20;;;;;;5039668;28;20274;-38
2022/04/27 11:11:18;;;;;;;5.80;4.57;;;14.80;94.40;;;;;;5028149;28;20270;-38
2022/04/27 11:13:47;;;;;;;9.27;5.67;;;14.80;94.50;;;;;;5028510;28;20208;-38
2022/04/27 11:16:15;;;;;;;7.25;4.97;;;14.90;94.50;;;;;;5031031;28;20226;-39
2022/04/27 11:18:57;;;;;;;6.97;5.20;;;14.90;94.40;;;;;;5038048;28;20208;-39
2022/04/27 11:21:31;;;;;;;7.07;5.30;;;15.00;94.60;;;;;;5029370;28;20213;-37
2022/04/27 11:24:00;;;;;;;5.30;4.63;;;15.00;94.50;;;;;;5028506;28;20216;-38
2022/04/27 11:26:28;;;;;;;6.67;4.53;;;15.10;94.70;;;;;;5046131;28;20593;-39
2022/04/27 11:28:57;;;;;;;9.00;6.55;;;15.20;94.80;;;;;;5043230;28;20292;-39
2022/04/27 11:31:27;;;;;;;10.70;6.07;;;15.20;94.00;;;;;;5030330;28;20713;-38
2022/04/27 11:33:54;;;;;;;8.73;5.65;;;15.40;94.40;;;;;;5028678;28;20337;-38
2022/04/27 11:36:25;;;;;;;7.10;5.97;;;15.40;94.20;;;;;;5039786;28;20229;-47
2022/04/27 11:38:53;;;;;;;6.57;5.60;;;15.40;93.90;;;;;;5055476;28;20196;-47
2022/04/27 11:41:24;;;;;;;8.75;5.47;;;15.40;94.30;;;;;;5050951;28;20299;-48
2022/04/27 11:43:55;;;;;;;9.45;6.47;;;15.50;94.30;;;;;;5048341;28;20658;-49
2022/04/27 11:46:22;;;;;;;7.50;6.22;;;15.50;94.00;;;;;;5048884;28;20205;-39
2022/04/27 11:48:51;;;;;;;8.40;5.88;;;15.50;94.20;;;;;;5046511;28;20204;-38
2022/04/27 11:51:18;;;;;;;7.50;6.30;;;15.50;94.30;;;;;;5046712;28;20582;-38
2022/04/27 11:53:49;;;;;;;7.57;5.88;;;15.60;94.20;;;;;;5047384;28;20622;-37
2022/04/27 11:56:18;;;;;;;9.50;5.95;;;15.60;94.20;;;;;;5047625;28;20692;-37
2022/04/27 11:58:48;;;;;;;8.23;6.57;;;15.70;94.20;;;;;;5037478;28;20220;-38
2022/04/27 12:01:21;;;;;;;6.88;5.50;;;15.70;94.30;;;;;;5033742;28;20278;-38
2022/04/27 12:03:52;;;;;;;6.50;5.82;;;15.70;94.30;;;;;;5027229;28;20265;-39
2022/04/27 12:06:24;;;;;;;7.40;5.53;;;15.70;94.40;;;;;;5028219;28;20215;-39
2022/04/27 12:09:00;;;;;;;9.23;6.00;;;15.70;94.40;;;;;;5027488;28;20479;-39
2022/04/27 12:11:28;;;;;;;8.80;6.28;;;15.80;94.50;;;;;;5028704;28;20217;-39
2022/04/27 12:13:55;;;;;;;8.02;6.50;;;15.80;94.20;;;;;;5026437;28;20208;-44
2022/04/27 12:16:32;;;;;;;10.90;6.60;;;15.80;94.20;;;;;;5028344;28;20208;-39
2022/04/27 12:19:06;;;;;;;8.75;6.53;;;15.80;94.00;;;;;;5038164;28;20218;-39
2022/04/27 12:21:33;;;;;;;8.50;6.88;;;15.80;94.00;;;;;;5046258;28;20196;-39
2022/04/27 12:24:17;;;;;;;8.95;6.10;;;15.80;93.30;;;;;;5027258;28;20550;-39
2022/04/27 12:26:44;;;;;;;8.85;6.55;;;15.80;93.80;;;;;;5026756;28;20694;-39
2022/04/27 12:29:14;;;;;;;7.53;5.95;;;15.90;93.90;;;;;;5037882;28;20228;-39
2022/04/27 12:31:42;;;;;;;6.82;5.35;;;15.90;94.20;;;;;;5047486;28;20678;-39
2022/04/27 12:37:29;;;;;;;7.32;5.03;;;15.90;94.20;;;;;;5046725;28;20215;-39
2022/04/27 12:39:43;;;;;;;7.30;6.00;;;16.10;94.40;;;;;;5039287;28;20982;-39
2022/04/27 12:42:10;;;;;;;7.28;5.97;;;16.10;94.20;;;;;;5045786;28;20204;-39
2022/04/27 12:44:44;;;;;;;7.80;6.05;;;16.10;94.30;;;;;;5039703;28;20220;-48
2022/04/27 12:47:14;;;;;;;9.65;6.65;;;16.20;94.10;;;;;;5045189;28;20254;-47
2022/04/27 12:49:44;;;;;;;7.05;6.20;;;16.30;93.80;;;;;;5038556;28;20209;-49
2022/04/27 12:52:26;;;;;;;5.95;5.40;;;16.30;94.20;;;;;;5027638;28;20193;-49
2022/04/27 12:55:07;;;;;;;7.15;6.45;;;16.30;94.20;;;;;;5028110;28;20287;-48
2022/04/27 12:57:53;;;;;;;6.93;5.80;;;16.40;94.30;;;;;;5027120;28;20296;-49
2022/04/27 13:00:40;;;;;;;6.35;5.75;;;16.50;94.40;;;;;;5030670;28;20247;-49
2022/04/27 13:03:09;;;;;;;8.63;6.00;;;16.60;94.60;;;;;;5030902;28;20645;-49
2022/04/27 13:05:37;;;;;;;7.43;5.68;;;16.70;94.60;;;;;;5047010;28;20208;-49
2022/04/27 13:08:05;;;;;;;9.23;6.30;;;16.70;94.60;;;;;;5026999;28;20705;-49
2022/04/27 13:13:19;;;;;;;7.43;6.22;;;16.80;93.30;;;;;;5027334;28;20563;-48
2022/04/27 13:15:47;;;;;;;7.55;6.72;;;16.80;94.50;;;;;;5027295;28;20211;-49
2022/04/27 13:18:16;;;;;;;7.65;6.45;;;16.90;93.70;;;;;;5026696;28;20223;-48
2022/04/27 13:20:55;;;;;;;7.57;6.65;;;16.90;94.10;;;;;;5027604;28;20251;-49
2022/04/27 13:23:22;;;;;;;7.28;6.22;;;16.90;94.10;;;;;;5025751;28;20244;-49
2022/04/27 13:25:52;;;;;;;9.02;7.13;;;16.90;93.90;;;;;;5025660;28;20255;-49
2022/04/27 13:28:22;;;;;;;8.85;6.68;;;16.90;93.90;;;;;;5026915;28;20233;-49